Time;durP1;ratioP1;P1;durP2;ratioP2;P2;SDS_P1;SDS_P2;PMS_P1;PMS_P2;Temp;Humidity;BMP_temperature;BMP_pressure;BME280_temperature;BME280_humidity;BME280_pressure;Samples;Min_cycle;Max_cycle;Signal;HPM_P1;HPM_P2
2023/04/17 00:06:00;;;;;;;20.43;14.77;;;;;;;10.84;80.98;99690.38;7409226;39;20238;31
2023/04/17 00:11:36;;;;;;;16.60;13.82;;;;;;;10.73;81.50;99687.09;7428072;39;21193;31
2023/04/17 00:16:56;;;;;;;18.85;15.25;;;;;;;10.70;81.45;99676.62;7447138;39;21935;31
2023/04/17 00:22:32;;;;;;;17.73;13.23;;;;;;;10.61;81.94;99675.72;7441953;39;20238;31
2023/04/17 00:27:52;;;;;;;14.45;12.30;;;;;;;10.53;83.26;99672.91;7440409;39;20257;31
2023/04/17 00:33:09;;;;;;;13.90;11.63;;;;;;;10.53;82.77;99664.03;7398916;39;20354;31
2023/04/17 00:38:44;;;;;;;15.73;11.47;;;;;;;10.49;82.70;99671.53;7379373;39;20310;31
2023/04/17 00:44:02;;;;;;;15.20;12.03;;;;;;;10.56;82.36;99671.78;7347426;39;20341;31
2023/04/17 00:49:40;;;;;;;15.82;12.02;;;;;;;10.58;82.15;99667.91;7356008;39;20258;31
2023/04/17 00:55:14;;;;;;;13.67;11.50;;;;;;;10.60;81.56;99659.69;7326459;39;20254;31
2023/04/17 01:00:49;;;;;;;13.93;11.37;;;;;;;10.65;81.44;99655.53;7375507;39;20240;31
2023/04/17 01:06:24;;;;;;;15.10;11.10;;;;;;;10.70;81.01;99645.13;7341535;39;20262;31
2023/04/17 01:12:10;;;;;;;;;;;;;;;;;;;;;
2023/04/17 01:17:36;;;;;;;13.20;10.90;;;;;;;10.72;80.96;99648.50;7408722;39;20369;31
2023/04/17 01:23:11;;;;;;;13.00;10.55;;;;;;;10.68;81.50;99640.88;7421994;39;21104;31
2023/04/17 01:28:48;;;;;;;13.33;11.23;;;;;;;10.60;81.67;99647.06;7419399;39;20439;31
2023/04/17 01:34:23;;;;;;;12.97;10.20;;;;;;;10.55;81.98;99643.97;7378780;39;20266;31
2023/04/17 01:39:43;;;;;;;13.40;10.37;;;;;;;10.58;81.08;99643.66;7377247;39;20243;31
2023/04/17 01:45:16;;;;;;;11.53;10.03;;;;;;;10.61;80.80;99647.91;7354990;39;20254;31
2023/04/17 01:50:48;;;;;;;10.70;9.23;;;;;;;10.62;80.88;99650.44;7339729;39;20262;31
2023/04/17 01:56:06;;;;;;;15.10;10.20;;;;;;;10.64;81.12;99655.69;7150697;39;20251;31
2023/04/17 02:07:43;;;;;;;11.00;9.20;;;;;;;10.52;80.49;99647.00;7446505;39;20261;31
2023/04/17 02:13:00;;;;;;;12.90;10.15;;;;;;;10.56;81.04;99651.06;7458206;39;20334;31
2023/04/17 02:23:41;;;;;;;12.17;9.73;;;;;;;10.56;80.79;99648.38;7436194;39;21142;31
2023/04/17 02:34:17;;;;;;;12.30;9.73;;;;;;;10.59;80.53;99644.50;7362560;39;21240;31
2023/04/17 02:44:56;;;;;;;10.70;8.95;;;;;;;10.56;79.99;99645.69;7431388;39;20340;31
2023/04/17 02:50:13;;;;;;;11.50;9.30;;;;;;;10.57;80.38;99649.22;7444788;39;21154;31
2023/04/17 02:55:49;;;;;;;9.77;8.33;;;;;;;10.55;80.15;99646.69;7440726;39;20320;31
2023/04/17 03:01:26;;;;;;;10.73;8.80;;;;;;;10.52;80.34;99644.31;7402987;39;20250;31
2023/04/17 03:06:58;;;;;;;11.27;8.63;;;;;;;10.47;80.09;99643.91;7354500;39;20255;31
2023/04/17 03:12:29;;;;;;;11.60;9.37;;;;;;;10.42;80.68;99643.53;7361178;39;20274;31
2023/04/17 03:18:02;;;;;;;11.07;9.30;;;;;;;10.42;80.64;99643.53;7363434;39;20339;31
2023/04/17 03:23:37;;;;;;;9.47;8.03;;;;;;;10.44;80.22;99646.94;7375587;39;20305;31
2023/04/17 03:28:54;;;;;;;10.45;8.40;;;;;;;10.45;80.14;99640.50;7378448;39;20419;31
2023/04/17 03:39:35;;;;;;;11.50;8.90;;;;;;;10.45;80.14;99645.91;7370773;39;20728;31
2023/04/17 03:44:52;;;;;;;12.00;9.50;;;;;;;10.42;80.39;99645.38;7406384;39;20263;31
2023/04/17 03:50:27;;;;;;;10.07;8.53;;;;;;;10.40;80.35;99651.75;7409494;39;21216;31
2023/04/17 03:56:03;;;;;;;11.00;9.20;;;;;;;10.31;80.77;99655.38;7439752;39;20243;31
2023/04/17 04:01:27;;;;;;;12.73;9.37;;;;;;;10.31;80.64;99658.06;7399433;39;20242;31
2023/04/17 04:06:41;;;;;;;12.50;9.63;;;;;;;10.31;80.93;99659.94;7395311;39;20504;31
2023/04/17 04:12:15;;;;;;;11.77;9.82;;;;;;;10.30;80.57;99669.88;7354639;39;20297;31
2023/04/17 04:17:53;;;;;;;12.53;9.60;;;;;;;10.31;80.09;99674.22;7340060;39;20446;31
2023/04/17 04:23:26;;;;;;;14.30;10.67;;;;;;;10.33;80.33;99660.63;7364710;39;20354;31
2023/04/17 04:28:58;;;;;;;15.87;10.97;;;;;;;10.35;80.67;99677.50;7332086;39;20244;31
2023/04/17 04:34:18;;;;;;;12.37;10.37;;;;;;;10.30;80.09;99677.94;7396593;39;20243;31
2023/04/17 04:39:52;;;;;;;13.90;11.00;;;;;;;10.31;80.39;99679.63;7414987;39;20372;31
2023/04/17 04:45:35;;;;;;;16.20;11.05;;;;;;;10.33;80.29;99674.09;7400046;39;20382;31
2023/04/17 04:55:56;;;;;;;17.90;14.13;;;;;;;10.42;79.82;99675.88;7302487;39;20272;31
2023/04/17 05:01:29;;;;;;;16.67;13.37;;;;;;;10.43;80.33;99679.41;7302217;39;20240;31
2023/04/17 05:07:03;;;;;;;18.63;15.47;;;;;;;10.43;81.11;99690.19;7294028;39;20256;31
2023/04/17 05:12:36;;;;;;;21.10;16.20;;;;;;;10.41;81.36;99687.63;7357127;39;20244;31
2023/04/17 05:18:13;;;;;;;19.10;15.48;;;;;;;10.42;81.72;99693.88;7356502;39;21226;31
2023/04/17 05:23:34;;;;;;;21.05;17.40;;;;;;;10.49;81.65;99701.19;7315841;39;20325;31
2023/04/17 05:28:54;;;;;;;20.63;16.20;;;;;;;10.48;81.65;99701.38;7337288;39;20236;31
2023/04/17 05:34:26;;;;;;;19.13;16.03;;;;;;;10.53;82.15;99690.97;7335445;39;20236;31
2023/04/17 05:39:59;;;;;;;20.43;16.30;;;;;;;10.52;82.60;99694.66;7314541;39;20260;31
2023/04/17 05:45:35;;;;;;;20.00;16.45;;;;;;;10.52;83.10;99692.81;7275369;39;20284;31
2023/04/17 05:51:08;;;;;;;20.40;17.10;;;;;;;10.56;83.01;99691.50;7263236;40;20374;31
2023/04/17 05:56:26;;;;;;;25.53;17.70;;;;;;;10.62;82.75;99698.13;7285322;40;20260;31
2023/04/17 06:01:46;;;;;;;23.20;17.80;;;;;;;10.66;82.99;99704.91;7365824;39;20242;31
2023/04/17 06:07:18;;;;;;;20.67;17.50;;;;;;;10.67;82.88;99698.50;7399917;39;20268;31
2023/04/17 06:12:39;;;;;;;20.40;17.17;;;;;;;10.73;82.52;99701.44;7380471;39;20239;31
2023/04/17 06:17:59;;;;;;;21.57;16.80;;;;;;;10.75;82.24;99703.97;7379704;39;20258;31
2023/04/17 06:23:34;;;;;;;20.77;17.27;;;;;;;10.75;82.59;99709.38;7361110;39;20256;31
2023/04/17 06:28:55;;;;;;;22.00;17.30;;;;;;;10.74;82.88;99713.91;7381761;39;20255;31
2023/04/17 06:34:30;;;;;;;22.80;17.20;;;;;;;10.70;82.62;99720.63;7355976;39;20258;31
2023/04/17 06:40:03;;;;;;;20.50;16.47;;;;;;;10.74;82.93;99710.38;7349172;39;20251;31
2023/04/17 06:45:35;;;;;;;22.40;17.10;;;;;;;10.80;82.49;99721.38;7314506;39;20265;31
2023/04/17 06:51:07;;;;;;;21.00;17.13;;;;;;;10.82;82.50;99718.53;7315484;39;20240;31
2023/04/17 06:56:37;;;;;;;20.85;16.60;;;;;;;10.83;82.52;99715.69;7255893;40;20260;31
2023/04/17 07:01:55;;;;;;;21.33;17.00;;;;;;;10.85;82.09;99727.16;7219731;40;20241;31
2023/04/17 07:07:29;;;;;;;24.80;16.20;;;;;;;10.82;82.15;99723.91;7293914;39;21203;31
2023/04/17 07:13:00;;;;;;;20.93;16.33;;;;;;;10.78;82.75;99739.56;7324855;39;20243;31
2023/04/17 07:18:32;;;;;;;24.00;16.57;;;;;;;10.84;82.26;99728.13;7341151;39;20244;31
2023/04/17 07:23:52;;;;;;;19.50;16.37;;;;;;;10.95;82.22;99750.50;7344002;39;20248;31
2023/04/17 07:29:26;;;;;;;21.47;16.53;;;;;;;11.04;82.06;99741.47;7295546;39;20255;31
2023/04/17 07:35:02;;;;;;;19.83;16.27;;;;;;;11.13;81.94;99749.47;7292186;39;20246;31
2023/04/17 07:40:34;;;;;;;18.77;15.20;;;;;;;11.20;81.57;99749.66;7275844;39;20348;31
2023/04/17 07:46:12;;;;;;;20.00;14.50;;;;;;;11.19;81.06;99747.97;7409278;39;20326;31
2023/04/17 07:51:44;;;;;;;14.95;12.30;;;;;;;11.32;80.69;99749.25;7421751;39;20296;31
2023/04/17 07:57:20;;;;;;;12.27;10.57;;;;;;;11.44;79.50;99744.47;7418650;39;20382;31
2023/04/17 08:02:58;;;;;;;12.33;10.87;;;;;;;11.49;79.17;99746.69;7421048;39;20302;31
2023/04/17 08:08:18;;;;;;;12.27;10.03;;;;;;;11.67;78.76;99751.00;7357173;39;20300;31
2023/04/17 08:13:38;;;;;;;14.43;11.07;;;;;;;11.74;78.65;99752.09;7397960;39;20250;31
2023/04/17 08:19:14;;;;;;;13.60;9.83;;;;;;;11.75;78.04;99755.66;7376890;39;20255;31
2023/04/17 08:24:34;;;;;;;14.77;11.20;;;;;;;11.80;78.23;99758.72;7370034;39;20309;31
2023/04/17 08:29:55;;;;;;;14.93;11.60;;;;;;;11.85;78.22;99767.16;7355534;39;20247;31
2023/04/17 08:35:28;;;;;;;11.20;10.07;;;;;;;11.90;77.54;99763.97;7356102;39;20243;31
2023/04/17 08:41:04;;;;;;;13.73;10.80;;;;;;;12.06;77.47;99759.53;7343704;39;20239;31
2023/04/17 08:46:37;;;;;;;11.20;9.60;;;;;;;12.08;77.64;99764.75;7156454;39;20227;31
2023/04/17 08:52:13;;;;;;;10.80;8.83;;;;;;;12.05;76.94;99768.62;7390434;39;20247;31
2023/04/17 08:57:33;;;;;;;9.50;7.85;;;;;;;12.19;75.66;99764.47;7346838;39;20273;31
2023/04/17 09:03:13;;;;;;;8.93;7.77;;;;;;;12.30;75.75;99766.00;7399168;39;21241;31
2023/04/17 09:08:46;;;;;;;8.30;7.45;;;;;;;12.30;75.54;99768.72;7353171;39;20353;31
2023/04/17 09:19:21;;;;;;;9.83;7.33;;;;;;;12.72;73.87;99757.87;7440463;39;21205;31
2023/04/17 09:24:56;;;;;;;8.87;6.47;;;;;;;13.01;72.12;99766.34;7397638;39;20255;31
2023/04/17 09:30:33;;;;;;;7.43;6.53;;;;;;;13.35;71.34;99755.38;7366587;39;20236;31
2023/04/17 09:36:08;;;;;;;7.57;6.23;;;;;;;13.49;70.07;99760.09;7334254;39;20300;31
2023/04/17 09:41:44;;;;;;;6.20;5.60;;;;;;;13.75;70.56;99766.13;7314055;39;20241;31
2023/04/17 09:47:16;;;;;;;7.50;5.63;;;;;;;13.92;68.33;99770.50;7347618;39;20259;31
2023/04/17 09:52:51;;;;;;;6.17;5.37;;;;;;;13.91;67.45;99759.81;7335044;39;20241;31
2023/04/17 09:58:25;;;;;;;6.63;5.57;;;;;;;13.87;67.48;99758.47;7367122;39;20239;31
2023/04/17 10:04:00;;;;;;;6.33;5.70;;;;;;;13.93;67.16;99757.78;7336526;39;20259;31
2023/04/17 10:09:32;;;;;;;8.63;5.97;;;;;;;14.19;67.98;99752.94;7348438;39;20248;31
2023/04/17 10:15:08;;;;;;;6.87;5.70;;;;;;;13.93;66.91;99763.22;7351248;39;20235;31
2023/04/17 10:20:52;;;;;;;6.97;6.27;;;;;;;13.62;68.27;99754.16;7370719;39;20239;31
2023/04/17 10:26:55;;;;;;;8.35;6.65;;;;;;;13.42;67.89;99759.09;7364801;39;20340;31
2023/04/17 10:37:32;;;;;;;7.95;6.90;;;;;;;13.07;68.21;99754.84;7377174;39;21382;31
2023/04/17 10:48:09;;;;;;;7.80;6.70;;;;;;;12.98;68.74;99745.03;7376018;39;21098;31
2023/04/17 10:53:52;;;;;;;7.25;6.15;;;;;;;12.82;69.47;99745.00;7396285;39;20259;31
2023/04/17 10:59:28;;;;;;;8.23;6.47;;;;;;;12.77;69.76;99739.28;7401725;39;20389;31
2023/04/17 11:05:02;;;;;;;9.35;7.00;;;;;;;12.74;70.15;99742.28;7377599;39;20309;31
2023/04/17 11:10:50;;;;;;;8.27;6.20;;;;;;;12.64;70.21;99740.59;7352452;39;20432;31
2023/04/17 11:21:26;;;;;;;6.97;6.28;;;;;;;12.68;70.64;99745.69;7378257;39;21294;31
2023/04/17 11:32:31;;;;;;;7.00;6.30;;;;;;;12.96;70.30;99736.22;7338689;38;9985220;31
2023/04/17 11:38:20;;;;;;;8.17;6.37;;;;;;;13.03;69.37;99731.84;7464282;39;20250;31
2023/04/17 11:43:42;;;;;;;7.00;5.50;;;;;;;13.05;68.86;99738.78;7446247;39;20233;31
2023/04/17 11:49:17;;;;;;;7.03;5.53;;;;;;;13.11;68.57;99734.59;7466733;39;20364;31
2023/04/17 11:54:49;;;;;;;5.30;4.70;;;;;;;13.09;68.29;99731.16;7487008;38;20255;31
2023/04/17 12:00:28;;;;;;;6.80;6.10;;;;;;;13.03;68.96;99734.56;7446697;39;20256;31
2023/04/17 12:06:13;;;;;;;7.30;6.00;;;;;;;13.08;69.49;99735.72;7405665;39;20247;31
2023/04/17 12:11:57;;;;;;;;;;;;;;;;;;;;;
2023/04/17 12:17:04;;;;;;;5.27;4.60;;;;;;;13.21;70.41;99742.53;7352610;39;20471;31
2023/04/17 12:22:40;;;;;;;4.85;4.35;;;;;;;13.15;70.11;99741.34;7465394;39;20230;31
2023/04/17 12:28:15;;;;;;;4.83;3.30;;;;;;;13.26;68.73;99751.81;7391250;39;20310;31
2023/04/17 12:33:47;;;;;;;4.15;3.40;;;;;;;13.40;68.30;99747.56;7404003;39;20312;31
2023/04/17 12:39:20;;;;;;;5.97;3.43;;;;;;;13.47;66.63;99740.47;7360577;39;20243;31
2023/04/17 12:44:37;;;;;;;3.20;2.90;;;;;;;13.72;65.64;99733.97;7402540;39;20266;31
2023/04/17 12:49:57;;;;;;;2.93;2.50;;;;;;;14.01;64.09;99730.66;7436686;39;20253;31
2023/04/17 12:55:31;;;;;;;2.45;2.15;;;;;;;14.12;62.55;99734.84;7435223;39;20243;31
2023/04/17 13:01:06;;;;;;;2.60;2.10;;;;;;;14.05;60.96;99721.16;7377567;39;20380;31
2023/04/17 13:06:38;;;;;;;3.73;2.50;;;;;;;14.10;60.92;99720.63;7379414;39;20370;31
2023/04/17 13:12:11;;;;;;;3.23;2.03;;;;;;;14.22;59.24;99721.91;7399156;39;20243;31
2023/04/17 13:17:31;;;;;;;2.65;2.00;;;;;;;14.33;60.40;99716.09;7420684;39;20270;31
2023/04/17 13:22:52;;;;;;;3.63;2.60;;;;;;;14.51;58.06;99721.28;7405208;39;20442;31
2023/04/17 13:28:29;;;;;;;3.73;2.83;;;;;;;14.47;57.62;99723.53;7434461;39;20266;31
2023/04/17 13:33:50;;;;;;;4.23;3.33;;;;;;;14.39;58.71;99716.25;7440608;39;20250;31
2023/04/17 13:39:40;;;;;;;4.53;3.60;;;;;;;14.47;58.97;99718.09;7438860;39;20234;31
2023/04/17 13:50:30;;;;;;;5.43;4.10;;;;;;;14.39;58.69;99718.97;7423612;39;20278;31
2023/04/17 13:56:05;;;;;;;5.77;3.80;;;;;;;14.55;59.83;99698.22;7430201;39;20250;31
2023/04/17 14:06:43;;;;;;;5.70;4.20;;;;;;;14.76;59.35;99691.09;7439115;39;21261;31
2023/04/17 14:12:00;;;;;;;4.77;4.23;;;;;;;14.92;59.90;99706.41;7374918;39;20306;31
2023/04/17 14:17:19;;;;;;;6.30;4.80;;;;;;;14.88;59.12;99695.06;7426101;39;20242;31
2023/04/17 14:22:55;;;;;;;6.50;5.70;;;;;;;14.72;59.98;99688.94;7418988;39;20345;31
2023/04/17 14:28:27;;;;;;;7.73;5.07;;;;;;;14.70;60.22;99696.41;7445366;39;20607;31
2023/04/17 14:33:47;;;;;;;7.45;5.15;;;;;;;14.58;61.33;99689.69;7373308;39;20381;31
2023/04/17 14:39:26;;;;;;;6.20;5.60;;;;;;;14.45;61.54;99687.59;7411834;39;20399;31
2023/04/17 14:50:06;;;;;;;5.07;4.57;;;;;;;14.28;62.35;99680.53;7435131;39;20267;31
2023/04/17 15:00:42;;;;;;;5.40;3.33;;;;;;;14.08;60.70;99665.75;7458647;39;21129;31
2023/04/17 15:11:04;;;;;;;3.60;2.80;;;;;;;14.09;60.41;99670.97;7418036;39;21655;31
2023/04/17 15:22:03;;;;;;;3.30;2.80;;;;;;;13.91;59.66;99676.66;7345046;38;9727148;31
2023/04/17 15:27:23;;;;;;;5.13;2.60;;;;;;;13.89;59.32;99688.69;7442758;39;20415;31
2023/04/17 15:32:58;;;;;;;2.50;2.30;;;;;;;13.72;58.87;99681.66;7383600;39;20270;31
2023/04/17 15:38:34;;;;;;;3.07;2.37;;;;;;;13.67;59.89;99681.34;7320141;39;20252;31
2023/04/17 15:49:38;;;;;;;2.50;2.30;;;;;;;13.54;60.54;99677.31;7341216;38;9909484;31
2023/04/17 15:54:58;;;;;;;4.60;2.70;;;;;;;13.48;61.43;99683.41;7422696;39;20323;31
2023/04/17 16:00:32;;;;;;;3.10;2.80;;;;;;;13.44;61.94;99683.94;7403273;39;20257;31
2023/04/17 16:06:09;;;;;;;4.43;2.23;;;;;;;13.42;61.93;99689.53;7361469;39;20333;31
2023/04/17 16:11:42;;;;;;;2.93;2.43;;;;;;;13.36;61.55;99682.09;7402769;39;20243;31
2023/04/17 16:17:13;;;;;;;3.53;2.70;;;;;;;13.37;62.46;99685.66;7425193;39;21186;31
2023/04/17 16:22:49;;;;;;;2.80;2.30;;;;;;;13.35;61.94;99680.41;7428562;39;20250;31
2023/04/17 16:28:06;;;;;;;2.75;2.10;;;;;;;13.33;62.71;99671.63;7424721;39;20261;31
2023/04/17 16:33:23;;;;;;;2.66;2.22;;;;;;;13.31;62.46;99670.94;7420134;39;20653;31
2023/04/17 16:38:57;;;;;;;2.50;2.13;;;;;;;13.24;61.19;99678.06;7401667;39;20255;31
2023/04/17 16:44:32;;;;;;;3.20;2.30;;;;;;;13.20;61.27;99675.88;7367732;39;20243;31
2023/04/17 16:49:49;;;;;;;3.37;2.30;;;;;;;13.18;61.98;99675.19;7388533;39;20273;31
2023/04/17 17:00:27;;;;;;;2.95;2.30;;;;;;;13.02;61.58;99686.84;7387512;39;21157;31
2023/04/17 17:11:03;;;;;;;2.50;2.30;;;;;;;12.96;62.67;99701.91;7409215;39;21136;31
2023/04/17 17:21:41;;;;;;;2.97;2.35;;;;;;;12.86;63.17;99703.06;7403327;39;20302;31
2023/04/17 17:37:50;;;;;;;2.97;2.60;;;;;;;12.85;63.73;99707.66;7339733;38;9941172;31
2023/04/17 17:43:07;;;;;;;3.20;2.53;;;;;;;12.86;63.99;99713.91;7448943;39;21170;31
2023/04/17 17:48:27;;;;;;;2.80;2.50;;;;;;;12.85;64.36;99714.94;7424155;39;20257;31
2023/04/17 17:54:01;;;;;;;4.37;2.70;;;;;;;12.76;66.61;99718.66;7450656;39;20238;31
2023/04/17 17:59:20;;;;;;;2.50;2.20;;;;;;;12.62;66.90;99722.84;7381161;39;20377;31
2023/04/17 18:04:38;;;;;;;2.55;2.35;;;;;;;12.62;67.18;99725.56;7369687;39;20325;31
2023/04/17 18:10:15;;;;;;;2.70;2.40;;;;;;;12.64;68.68;99716.25;7386306;39;20350;31
2023/04/17 18:15:50;;;;;;;2.50;2.30;;;;;;;12.66;68.48;99707.97;7350601;39;20368;31
2023/04/17 18:21:11;;;;;;;2.83;2.53;;;;;;;12.68;68.83;99724.06;7416895;39;20442;31
2023/04/17 18:26:48;;;;;;;3.23;2.50;;;;;;;12.50;68.33;99719.63;7424801;39;20258;31
2023/04/17 18:32:05;;;;;;;2.90;2.60;;;;;;;12.37;68.73;99724.66;7400844;39;21128;31
2023/04/17 18:37:42;;;;;;;2.70;2.50;;;;;;;12.36;69.64;99722.97;7361231;39;20346;31
2023/04/17 18:53:43;;;;;;;4.55;2.30;;;;;;;12.37;69.43;99743.59;7399423;39;20258;31
2023/04/17 19:04:20;;;;;;;2.33;2.12;;;;;;;12.23;68.89;99748.78;7400958;39;21140;31
2023/04/17 19:14:43;;;;;;;3.33;2.30;;;;;;;12.23;68.83;99744.22;7365378;39;21139;31
2023/04/17 19:20:21;;;;;;;2.60;2.40;;;;;;;12.11;68.74;99757.16;7376915;39;20254;31
2023/04/17 19:25:56;;;;;;;2.60;2.13;;;;;;;12.11;68.77;99750.94;7388607;39;20261;31
2023/04/17 19:31:16;;;;;;;3.47;2.77;;;;;;;12.09;68.32;99752.94;7371352;39;20329;31
2023/04/17 19:36:51;;;;;;;2.65;2.45;;;;;;;12.01;68.75;99753.75;7385906;39;20247;31
2023/04/17 19:42:12;;;;;;;3.20;2.90;;;;;;;12.04;68.81;99753.44;7377035;39;20369;31
2023/04/17 19:47:33;;;;;;;3.45;2.47;;;;;;;12.07;69.17;99752.25;7346825;39;20463;31
2023/04/17 19:53:06;;;;;;;3.47;2.60;;;;;;;12.13;68.97;99743.50;7371918;39;20257;31
2023/04/17 19:58:40;;;;;;;3.07;2.40;;;;;;;12.06;69.43;99745.16;7356694;39;20306;31
2023/04/17 20:04:12;;;;;;;3.07;2.77;;;;;;;12.01;69.32;99744.81;7320802;39;20270;31
2023/04/17 20:09:45;;;;;;;3.75;3.00;;;;;;;11.98;70.58;99750.53;7343296;39;20340;31
2023/04/17 20:15:18;;;;;;;3.70;3.30;;;;;;;11.95;70.39;99740.88;7314188;39;20374;31
2023/04/17 20:20:47;;;;;;;4.77;3.80;;;;;;;11.89;70.15;99735.31;7241391;40;20250;31
2023/04/17 20:26:21;;;;;;;5.77;3.53;;;;;;;11.95;71.31;99738.19;7298357;39;20251;31
2023/04/17 20:31:39;;;;;;;3.93;3.60;;;;;;;11.99;71.04;99738.69;7375763;39;20254;31
2023/04/17 20:36:59;;;;;;;5.23;4.10;;;;;;;11.97;70.73;99733.47;7384387;39;20314;31
2023/04/17 20:42:29;;;;;;;4.20;3.65;;;;;;;11.99;70.33;99728.75;7397096;39;20333;31
2023/04/17 20:47:48;;;;;;;5.83;4.33;;;;;;;12.00;70.75;99727.75;7359724;39;20415;31
2023/04/17 20:58:21;;;;;;;4.30;3.90;;;;;;;11.93;70.70;99723.16;7380071;39;21117;31
2023/04/17 21:03:44;;;;;;;4.50;4.10;;;;;;;11.93;70.88;99715.06;7387648;39;20329;31
2023/04/17 21:09:04;;;;;;;6.63;4.40;;;;;;;11.93;70.63;99721.31;7368815;39;20265;31
2023/04/17 21:14:41;;;;;;;5.47;4.70;;;;;;;11.94;70.84;99716.72;7380186;39;20250;31
2023/04/17 21:20:16;;;;;;;5.13;4.63;;;;;;;11.87;71.16;99715.69;7337512;39;20369;31
2023/04/17 21:25:52;;;;;;;5.00;4.50;;;;;;;11.82;70.97;99724.28;7386480;39;20306;31
2023/04/17 21:31:27;;;;;;;6.70;4.37;;;;;;;11.76;71.03;99724.09;7375464;39;20335;31
2023/04/17 21:37:03;;;;;;;4.97;4.47;;;;;;;11.68;70.34;99714.03;7311014;39;20355;31
2023/04/17 21:42:35;;;;;;;7.13;4.63;;;;;;;11.62;70.86;99712.84;7309005;39;20243;31
2023/04/17 21:48:08;;;;;;;6.60;4.90;;;;;;;11.57;70.68;99719.75;7215163;40;20254;31
2023/04/17 21:53:42;;;;;;;6.90;4.50;;;;;;;11.48;70.59;99713.44;7272326;39;20255;31
2023/04/17 21:59:00;;;;;;;6.10;5.10;;;;;;;11.38;70.16;99722.66;7251594;39;20237;31
2023/04/17 22:04:37;;;;;;;7.43;5.00;;;;;;;11.32;70.40;99718.72;7274133;39;20260;31
2023/04/17 22:09:54;;;;;;;6.23;4.60;;;;;;;11.34;69.68;99714.03;7262147;39;20357;31
2023/04/17 22:15:14;;;;;;;6.97;5.20;;;;;;;11.33;69.64;99706.94;7293919;39;20263;31
2023/04/17 22:26:18;;;;;;;7.20;5.60;;;;;;;11.32;69.88;99716.88;7360756;38;9914205;31
2023/04/17 22:31:39;;;;;;;6.83;4.93;;;;;;;11.20;70.10;99720.00;7513604;38;21167;31
2023/04/17 22:36:58;;;;;;;5.87;5.27;;;;;;;11.14;70.34;99718.78;7486763;39;20403;31
2023/04/17 22:47:39;;;;;;;7.80;5.40;;;;;;;11.07;70.88;99719.56;7382504;39;20408;31
2023/04/17 22:52:59;;;;;;;8.93;5.77;;;;;;;11.15;71.13;99711.53;7393236;39;20262;31
2023/04/17 22:58:35;;;;;;;6.70;6.00;;;;;;;11.12;70.74;99712.69;7440765;39;20242;31
2023/04/17 23:04:09;;;;;;;6.77;4.93;;;;;;;11.02;70.78;99714.62;7492482;38;21951;31
2023/04/17 23:09:47;;;;;;;10.00;5.20;;;;;;;10.93;71.19;99712.88;7424716;39;20326;31
2023/04/17 23:20:25;;;;;;;5.95;5.10;;;;;;;10.73;71.33;99708.66;7316882;39;21198;31
2023/04/17 23:31:01;;;;;;;6.80;5.10;;;;;;;10.67;71.11;99704.72;7283267;39;20299;31
2023/04/17 23:42:05;;;;;;;5.20;4.70;;;;;;;10.42;71.25;99710.91;7344456;38;9777174;31
2023/04/17 23:47:21;;;;;;;5.80;5.17;;;;;;;10.29;70.84;99702.34;7476177;38;22023;31
2023/04/17 23:58:47;;;;;;;6.47;5.73;;;;;;;10.08;71.35;99701.75;7409741;39;20297;31
